createdAt,value
2019-04-30T00:00:15.830Z,6.32
2019-04-30T00:01:17.604Z,6.38
2019-04-30T00:02:15.936Z,6.32
2019-04-30T00:03:15.968Z,6.35
2019-04-30T00:04:15.750Z,6.37
2019-04-30T00:05:17.239Z,6.34
2019-04-30T00:06:15.700Z,6.34
2019-04-30T00:07:15.519Z,6.31
2019-04-30T00:08:16.031Z,6.27
2019-04-30T00:09:17.698Z,6.35
2019-04-30T00:10:15.469Z,6.31
2019-04-30T00:11:17.134Z,6.37
2019-04-30T00:12:15.677Z,6.37
2019-04-30T00:13:17.837Z,6.31
2019-04-30T00:14:15.311Z,6.32
2019-04-30T00:15:16.160Z,6.40
2019-04-30T00:16:15.419Z,6.28
2019-04-30T00:17:15.974Z,6.28
2019-04-30T00:18:15.555Z,6.34
2019-04-30T00:19:15.776Z,6.25
2019-04-30T00:20:15.134Z,6.13
2019-04-30T00:21:15.099Z,6.16
2019-04-30T00:22:15.849Z,6.15
2019-04-30T00:23:17.808Z,6.16
2019-04-30T00:24:15.761Z,6.19
2019-04-30T00:25:15.290Z,6.12
2019-04-30T00:26:17.012Z,6.18
2019-04-30T00:27:15.093Z,6.02
2019-04-30T00:28:15.541Z,6.18
2019-04-30T00:29:19.088Z,6.18
2019-04-30T00:30:15.431Z,6.08
2019-04-30T00:31:17.423Z,6.12
2019-04-30T00:32:15.943Z,6.19
2019-04-30T00:33:15.194Z,6.11
2019-04-30T00:34:15.159Z,6.15
2019-04-30T00:35:16.262Z,6.16
2019-04-30T00:36:17.204Z,6.19
2019-04-30T00:37:18.550Z,6.11
2019-04-30T00:38:15.249Z,6.13
2019-04-30T00:39:14.953Z,6.09
2019-04-30T00:40:15.387Z,6.06
2019-04-30T00:41:15.442Z,6.08
2019-04-30T00:42:17.272Z,6.06
2019-04-30T00:43:15.559Z,6.06
2019-04-30T00:44:15.168Z,5.94
2019-04-30T00:45:15.339Z,5.88
2019-04-30T00:46:17.345Z,5.95
2019-04-30T00:47:15.431Z,5.94
2019-04-30T00:48:19.397Z,5.98
2019-04-30T00:49:18.532Z,5.94
2019-04-30T00:50:15.033Z,5.93
2019-04-30T00:51:17.709Z,5.85
2019-04-30T00:52:15.379Z,5.79
2019-04-30T00:53:14.792Z,5.84
2019-04-30T00:54:15.250Z,5.79
2019-04-30T00:55:15.053Z,5.70
2019-04-30T00:56:15.645Z,5.80
2019-04-30T00:57:15.139Z,5.77
2019-04-30T00:58:17.753Z,5.69
2019-04-30T00:59:15.087Z,5.69
2019-04-30T01:00:19.786Z,5.61
2019-04-30T01:01:15.254Z,5.58
2019-04-30T01:02:13.502Z,5.59
2019-04-30T01:03:15.318Z,5.61
2019-04-30T01:04:15.015Z,5.55
2019-04-30T01:05:15.555Z,5.59
2019-04-30T01:06:18.766Z,5.54
2019-04-30T01:07:15.517Z,5.47
2019-04-30T01:08:15.402Z,5.40
2019-04-30T01:09:13.422Z,5.43
2019-04-30T01:10:15.060Z,5.43
2019-04-30T01:11:15.340Z,5.41
2019-04-30T01:12:17.335Z,5.44
2019-04-30T01:13:14.389Z,5.41
2019-04-30T01:14:13.403Z,5.37
2019-04-30T01:15:14.625Z,5.36
2019-04-30T01:16:13.349Z,5.36
2019-04-30T01:17:13.407Z,5.39
2019-04-30T01:18:13.337Z,5.34
2019-04-30T01:19:27.531Z,5.32
2019-04-30T01:20:14.329Z,5.29
2019-04-30T01:21:13.390Z,5.39
2019-04-30T01:22:13.297Z,5.34
2019-04-30T01:23:13.285Z,5.27
2019-04-30T01:24:13.263Z,5.30
2019-04-30T01:25:13.670Z,5.34
2019-04-30T01:26:13.244Z,5.36
2019-04-30T01:27:13.235Z,5.34
2019-04-30T01:28:16.322Z,5.39
2019-04-30T01:29:14.211Z,5.32
2019-04-30T01:30:17.622Z,5.34
2019-04-30T01:31:14.182Z,5.37
2019-04-30T01:32:17.452Z,5.36
2019-04-30T01:33:14.163Z,5.41
2019-04-30T01:34:14.003Z,5.43
2019-04-30T01:35:13.157Z,5.43
2019-04-30T01:36:13.518Z,5.34
2019-04-30T01:37:13.132Z,5.41
2019-04-30T01:38:13.122Z,5.34
2019-04-30T01:39:13.106Z,5.37
2019-04-30T01:40:13.885Z,5.40
2019-04-30T01:41:13.080Z,5.44
2019-04-30T01:42:13.067Z,5.40
2019-04-30T01:43:13.053Z,5.34
2019-04-30T01:44:13.043Z,5.41
2019-04-30T01:45:13.038Z,5.39
2019-04-30T01:46:14.011Z,5.37
2019-04-30T01:47:13.006Z,5.37
2019-04-30T01:48:13.006Z,5.43
2019-04-30T01:49:12.999Z,5.37
2019-04-30T01:50:12.994Z,5.40
2019-04-30T01:51:13.334Z,5.37
2019-04-30T01:52:12.954Z,5.33
2019-04-30T01:53:13.341Z,5.32
2019-04-30T01:54:13.800Z,5.41
2019-04-30T01:55:12.968Z,5.33
2019-04-30T01:56:12.930Z,5.33
2019-04-30T01:57:12.908Z,5.33
2019-04-30T01:58:12.910Z,5.24
2019-04-30T01:59:12.888Z,5.29
2019-04-30T02:00:12.880Z,5.24
2019-04-30T02:01:12.881Z,5.25
2019-04-30T02:02:12.852Z,5.21
2019-04-30T02:03:12.848Z,5.16
2019-04-30T02:04:12.824Z,5.14
2019-04-30T02:05:12.812Z,5.21
2019-04-30T02:06:12.835Z,5.09
2019-04-30T02:07:12.794Z,5.06
2019-04-30T02:08:12.783Z,5.16
2019-04-30T02:09:12.802Z,5.12
2019-04-30T02:10:12.762Z,5.11
2019-04-30T02:11:12.778Z,5.12
2019-04-30T02:12:12.744Z,5.15
2019-04-30T02:13:12.779Z,5.04
2019-04-30T02:14:12.720Z,5.09
2019-04-30T02:15:12.708Z,5.18
2019-04-30T02:16:12.782Z,5.15
2019-04-30T02:17:12.698Z,5.16
2019-04-30T02:18:12.676Z,5.11
2019-04-30T02:19:12.661Z,5.15
2019-04-30T02:20:12.715Z,5.09
2019-04-30T02:21:12.667Z,5.14
2019-04-30T02:22:12.640Z,5.12
2019-04-30T02:23:12.628Z,5.15
2019-04-30T02:24:12.643Z,5.09
2019-04-30T02:25:12.611Z,5.11
2019-04-30T02:26:12.611Z,5.06
2019-04-30T02:27:12.584Z,5.07
2019-04-30T02:28:12.578Z,5.00
2019-04-30T02:29:12.567Z,4.97
2019-04-30T02:30:12.549Z,4.98
2019-04-30T02:31:12.615Z,4.93
2019-04-30T02:32:12.537Z,4.97
2019-04-30T02:33:12.512Z,4.93
2019-04-30T02:34:12.511Z,4.98
2019-04-30T02:35:12.530Z,4.91
2019-04-30T02:36:12.516Z,4.97
2019-04-30T02:37:12.478Z,4.77
2019-04-30T02:38:12.462Z,4.86
2019-04-30T02:39:12.508Z,4.83
2019-04-30T02:40:12.449Z,4.89
2019-04-30T02:41:12.437Z,4.79
2019-04-30T02:42:13.231Z,4.77
2019-04-30T02:43:12.407Z,4.77
2019-04-30T02:44:12.393Z,4.72
2019-04-30T02:45:12.382Z,4.78
2019-04-30T02:46:12.387Z,4.66
2019-04-30T02:47:12.376Z,4.71
2019-04-30T02:48:12.351Z,4.77
2019-04-30T02:49:12.342Z,4.71
2019-04-30T02:50:18.349Z,4.63
2019-04-30T02:51:13.325Z,4.63
2019-04-30T02:52:12.387Z,4.59
2019-04-30T02:53:12.307Z,4.59
2019-04-30T02:54:12.297Z,4.57
2019-04-30T02:55:12.287Z,4.67
2019-04-30T02:56:12.271Z,4.63
2019-04-30T02:57:12.364Z,4.59
2019-04-30T02:58:12.258Z,4.57
2019-04-30T02:59:12.234Z,4.53
2019-04-30T03:00:12.220Z,4.57
2019-04-30T03:01:12.213Z,4.48
2019-04-30T03:02:12.222Z,4.53
2019-04-30T03:03:12.191Z,4.57
2019-04-30T03:04:12.189Z,4.48
2019-04-30T03:05:13.647Z,4.43
2019-04-30T03:06:12.239Z,4.53
2019-04-30T03:07:12.168Z,4.45
2019-04-30T03:08:12.153Z,4.46
2019-04-30T03:09:12.155Z,4.42
2019-04-30T03:10:12.121Z,4.41
2019-04-30T03:11:12.193Z,4.42
2019-04-30T03:12:12.123Z,4.38
2019-04-30T03:13:12.083Z,4.35
2019-04-30T03:14:12.087Z,4.39
2019-04-30T03:15:12.067Z,4.36
2019-04-30T03:16:12.051Z,4.35
2019-04-30T03:17:12.061Z,4.34
2019-04-30T03:18:12.079Z,4.28
2019-04-30T03:19:12.029Z,4.27
2019-04-30T03:20:20.242Z,4.34
2019-04-30T03:21:12.994Z,4.30
2019-04-30T03:22:12.009Z,4.20
2019-04-30T03:23:11.978Z,4.26
2019-04-30T03:24:11.997Z,4.31
2019-04-30T03:25:11.955Z,4.30
2019-04-30T03:26:12.922Z,4.27
2019-04-30T03:27:11.958Z,4.26
2019-04-30T03:28:11.923Z,4.24
2019-04-30T03:29:11.910Z,4.20
2019-04-30T03:30:12.378Z,4.24
2019-04-30T03:31:12.675Z,4.17
2019-04-30T03:32:13.839Z,4.24
2019-04-30T03:33:13.137Z,4.24
2019-04-30T03:34:18.283Z,4.18
2019-04-30T03:35:13.365Z,4.20
2019-04-30T03:36:12.875Z,4.18
2019-04-30T03:37:11.880Z,4.24
2019-04-30T03:38:11.838Z,4.20
2019-04-30T03:39:11.808Z,4.20
2019-04-30T03:40:13.292Z,4.20
2019-04-30T03:41:11.829Z,4.13
2019-04-30T03:42:11.787Z,4.16
2019-04-30T03:43:11.787Z,4.20
2019-04-30T03:44:21.820Z,4.21
2019-04-30T03:45:12.736Z,4.27
2019-04-30T03:46:11.742Z,4.16
2019-04-30T03:47:11.730Z,4.17
2019-04-30T03:48:11.722Z,4.28
2019-04-30T03:49:13.412Z,4.21
2019-04-30T03:50:11.698Z,4.20
2019-04-30T03:51:11.678Z,4.17
2019-04-30T03:52:13.344Z,4.21
2019-04-30T03:53:11.705Z,4.23
2019-04-30T03:54:11.641Z,4.24
2019-04-30T03:55:11.640Z,4.20
2019-04-30T03:56:11.632Z,4.28
2019-04-30T03:57:11.628Z,4.24
2019-04-30T03:58:11.630Z,4.24
2019-04-30T03:59:11.621Z,4.34
2019-04-30T04:00:11.577Z,4.31
2019-04-30T04:01:11.605Z,4.26
2019-04-30T04:02:12.709Z,4.34
2019-04-30T04:03:11.583Z,4.27
2019-04-30T04:04:11.541Z,4.31
2019-04-30T04:05:11.526Z,4.21
2019-04-30T04:06:11.510Z,4.31
2019-04-30T04:07:11.508Z,4.34
2019-04-30T04:08:11.537Z,4.34
2019-04-30T04:09:11.514Z,4.38
2019-04-30T04:10:11.478Z,4.43
2019-04-30T04:11:11.489Z,4.43
2019-04-30T04:12:12.055Z,4.43
2019-04-30T04:13:11.443Z,4.45
2019-04-30T04:14:11.450Z,4.45
2019-04-30T04:15:11.416Z,4.48
2019-04-30T04:16:11.405Z,4.56
2019-04-30T04:17:11.432Z,4.49
2019-04-30T04:18:11.383Z,4.67
2019-04-30T04:19:11.403Z,4.79
2019-04-30T04:20:11.427Z,4.77
2019-04-30T04:21:16.226Z,4.88
2019-04-30T04:22:12.411Z,4.91
2019-04-30T04:23:11.330Z,4.96
2019-04-30T04:24:11.345Z,4.98
2019-04-30T04:25:13.245Z,4.91
2019-04-30T04:26:11.349Z,5.07
2019-04-30T04:27:11.308Z,5.25
2019-04-30T04:28:11.329Z,5.40
2019-04-30T04:29:12.502Z,5.55
2019-04-30T04:30:11.263Z,5.69
2019-04-30T04:31:11.269Z,5.77
2019-04-30T04:32:11.235Z,5.94
2019-04-30T04:33:11.223Z,6.16
2019-04-30T04:34:11.232Z,6.40
2019-04-30T04:35:12.799Z,6.71
2019-04-30T04:36:11.200Z,6.82
2019-04-30T04:37:11.184Z,7.00
2019-04-30T04:38:12.804Z,7.18
2019-04-30T04:39:11.177Z,7.28
2019-04-30T04:40:11.189Z,7.43
2019-04-30T04:41:11.137Z,7.43
2019-04-30T04:42:11.136Z,7.40
2019-04-30T04:43:11.119Z,7.49
2019-04-30T04:44:12.998Z,7.57
2019-04-30T04:45:11.099Z,7.68
2019-04-30T04:46:11.077Z,7.66
2019-04-30T04:47:12.071Z,7.50
2019-04-30T04:48:11.087Z,7.52
2019-04-30T04:49:11.073Z,7.28
2019-04-30T04:50:11.041Z,7.18
2019-04-30T04:51:27.774Z,7.18
2019-04-30T04:52:12.031Z,7.01
2019-04-30T04:53:11.692Z,7.01
2019-04-30T04:54:10.993Z,6.96
2019-04-30T04:55:11.069Z,6.91
2019-04-30T04:56:11.097Z,6.86
2019-04-30T04:57:17.288Z,6.82
2019-04-30T04:58:12.966Z,6.89
2019-04-30T04:59:10.950Z,6.82
2019-04-30T05:00:10.986Z,6.78
2019-04-30T05:01:11.824Z,6.61
2019-04-30T05:02:10.910Z,6.74
2019-04-30T05:03:10.902Z,6.71
2019-04-30T05:04:11.872Z,6.70
2019-04-30T05:05:10.949Z,6.70
2019-04-30T05:06:11.818Z,6.65
2019-04-30T05:07:10.866Z,6.64
2019-04-30T05:08:10.842Z,6.64
2019-04-30T05:09:10.834Z,6.67
2019-04-30T05:10:10.842Z,6.67
2019-04-30T05:11:10.843Z,6.68
2019-04-30T05:12:10.817Z,6.73
2019-04-30T05:13:10.795Z,6.71
2019-04-30T05:14:11.027Z,6.71
2019-04-30T05:15:10.797Z,6.78
2019-04-30T05:16:10.769Z,6.83
2019-04-30T05:17:10.740Z,6.85
2019-04-30T05:18:10.748Z,7.07
2019-04-30T05:19:10.723Z,7.26
2019-04-30T05:20:10.721Z,7.39
2019-04-30T05:21:10.709Z,7.52
2019-04-30T05:22:10.700Z,7.61
2019-04-30T05:23:10.685Z,7.71
2019-04-30T05:24:10.693Z,7.78
2019-04-30T05:25:10.679Z,7.87
2019-04-30T05:26:11.094Z,7.98
2019-04-30T05:27:10.637Z,7.94
2019-04-30T05:28:10.621Z,7.95
2019-04-30T05:29:10.615Z,8.13
2019-04-30T05:30:12.151Z,8.21
2019-04-30T05:31:10.650Z,8.47
2019-04-30T05:32:10.596Z,8.80
2019-04-30T05:33:10.567Z,9.09
2019-04-30T05:34:10.619Z,9.40
2019-04-30T05:35:10.555Z,9.54
2019-04-30T05:36:10.541Z,9.85
2019-04-30T05:37:10.537Z,10.16
2019-04-30T05:38:10.509Z,10.20
2019-04-30T05:39:10.522Z,10.58
2019-04-30T05:40:10.532Z,10.67
2019-04-30T05:41:10.485Z,10.78
2019-04-30T05:42:10.475Z,10.85
2019-04-30T05:43:11.323Z,11.09
2019-04-30T05:44:10.473Z,11.31
2019-04-30T05:45:10.448Z,11.45
2019-04-30T05:46:11.010Z,11.71
2019-04-30T05:47:10.430Z,11.80
2019-04-30T05:48:10.400Z,11.80
2019-04-30T05:49:10.395Z,12.15
2019-04-30T05:50:10.390Z,12.28
2019-04-30T05:51:10.419Z,12.44
2019-04-30T05:52:11.633Z,12.58
2019-04-30T05:53:10.355Z,12.81
2019-04-30T05:54:10.341Z,13.04
2019-04-30T05:55:10.335Z,13.16
2019-04-30T05:56:10.341Z,13.38
2019-04-30T05:57:10.344Z,13.39
2019-04-30T05:58:10.300Z,13.61
2019-04-30T05:59:10.319Z,13.71
2019-04-30T06:00:10.350Z,13.82
2019-04-30T06:01:10.282Z,13.85
2019-04-30T06:02:11.473Z,13.80
2019-04-30T06:03:10.238Z,13.96
2019-04-30T06:04:10.241Z,14.16
2019-04-30T06:05:10.231Z,14.05
2019-04-30T06:06:11.466Z,13.90
2019-04-30T06:07:10.198Z,14.08
2019-04-30T06:08:10.184Z,14.12
2019-04-30T06:09:14.713Z,14.44
2019-04-30T06:10:11.166Z,14.66
2019-04-30T06:11:10.209Z,14.92
2019-04-30T06:12:11.414Z,15.08
2019-04-30T06:13:10.147Z,15.38
2019-04-30T06:14:10.154Z,15.52
2019-04-30T06:15:11.885Z,15.51
2019-04-30T06:16:10.113Z,15.58
2019-04-30T06:17:10.120Z,15.65
2019-04-30T06:18:13.607Z,15.59
2019-04-30T06:19:10.062Z,15.80
2019-04-30T06:20:18.110Z,15.76
2019-04-30T06:21:11.058Z,15.84
2019-04-30T06:22:10.917Z,16.06
2019-04-30T06:23:10.020Z,16.05
2019-04-30T06:24:10.741Z,16.29
2019-04-30T06:25:10.864Z,16.39
2019-04-30T06:26:13.021Z,16.47
2019-04-30T06:27:10.870Z,16.72
2019-04-30T06:28:09.963Z,16.84
2019-04-30T06:29:09.956Z,17.09
2019-04-30T06:30:12.104Z,17.12
2019-04-30T06:31:09.967Z,16.97
2019-04-30T06:32:09.926Z,17.22
2019-04-30T06:33:11.752Z,17.43
2019-04-30T06:34:09.903Z,17.37
2019-04-30T06:35:09.898Z,17.84
2019-04-30T06:36:11.141Z,17.59
2019-04-30T06:37:09.894Z,17.56
2019-04-30T06:38:09.859Z,17.43
2019-04-30T06:39:09.857Z,17.71
2019-04-30T06:40:11.726Z,17.63
2019-04-30T06:41:09.863Z,17.49
2019-04-30T06:42:12.791Z,17.86
2019-04-30T06:43:09.832Z,18.05
2019-04-30T06:44:09.794Z,18.42
2019-04-30T06:45:09.789Z,18.71
2019-04-30T06:46:09.767Z,18.74
2019-04-30T06:47:09.778Z,19.23
2019-04-30T06:48:09.773Z,19.57
2019-04-30T06:49:09.745Z,20.11
2019-04-30T06:50:09.834Z,20.42
2019-04-30T06:51:09.729Z,20.37
2019-04-30T06:52:20.321Z,20.63
2019-04-30T06:53:10.691Z,20.42
2019-04-30T06:54:11.074Z,20.50
2019-04-30T06:55:09.679Z,20.34
2019-04-30T06:56:09.663Z,20.27
2019-04-30T06:57:12.179Z,20.77
2019-04-30T06:58:15.194Z,21.14
2019-04-30T06:59:10.727Z,21.47
2019-04-30T07:00:09.933Z,21.30
2019-04-30T07:01:09.706Z,21.20
2019-04-30T07:02:09.612Z,21.32
2019-04-30T07:03:09.977Z,21.63
2019-04-30T07:04:10.490Z,21.78
2019-04-30T07:05:10.164Z,22.06
2019-04-30T07:06:09.558Z,22.00
2019-04-30T07:07:09.557Z,21.93
2019-04-30T07:08:12.021Z,21.84
2019-04-30T07:09:09.526Z,21.81
2019-04-30T07:10:16.467Z,21.98
2019-04-30T07:11:11.246Z,22.01
2019-04-30T07:12:09.529Z,22.21
2019-04-30T07:13:09.479Z,22.30
2019-04-30T07:14:09.636Z,22.33
2019-04-30T07:15:09.485Z,22.03
2019-04-30T07:16:10.998Z,22.28
2019-04-30T07:17:09.599Z,22.58
2019-04-30T07:18:09.430Z,22.31
2019-04-30T07:19:09.461Z,22.33
2019-04-30T07:20:10.441Z,22.56
2019-04-30T07:21:09.399Z,23.13
2019-04-30T07:22:09.400Z,22.91
2019-04-30T07:23:09.446Z,22.93
2019-04-30T07:24:09.549Z,22.81
2019-04-30T07:25:09.616Z,23.21
2019-04-30T07:26:13.886Z,23.63
2019-04-30T07:27:10.338Z,24.25
2019-04-30T07:28:09.324Z,23.81
2019-04-30T07:29:09.669Z,23.61
2019-04-30T07:30:09.925Z,23.74
2019-04-30T07:31:14.312Z,23.78
2019-04-30T07:32:10.291Z,24.23
2019-04-30T07:33:09.618Z,24.26
2019-04-30T07:34:09.463Z,24.89
2019-04-30T07:35:09.631Z,25.46
2019-04-30T07:36:09.755Z,25.71
2019-04-30T07:37:17.018Z,25.55
2019-04-30T07:38:10.209Z,25.82
2019-04-30T07:39:10.090Z,25.74
2019-04-30T07:40:09.313Z,26.20
2019-04-30T07:41:09.681Z,26.58
2019-04-30T07:42:09.357Z,26.94
2019-04-30T07:43:09.230Z,27.45
2019-04-30T07:44:11.046Z,27.10
2019-04-30T07:45:10.128Z,26.86
2019-04-30T07:46:09.601Z,26.51
2019-04-30T07:47:09.672Z,26.38
2019-04-30T07:48:09.420Z,26.11
2019-04-30T07:49:10.048Z,25.48
2019-04-30T07:50:10.641Z,25.37
2019-04-30T07:52:11.494Z,25.23
2019-04-30T07:53:11.075Z,25.56
2019-04-30T07:54:09.316Z,25.82
2019-04-30T07:55:09.790Z,26.57
2019-04-30T07:56:24.007Z,26.21
2019-04-30T07:57:10.003Z,25.96
2019-04-30T07:58:09.161Z,25.90
2019-04-30T07:59:11.015Z,26.00
2019-04-30T08:00:09.660Z,26.15
2019-04-30T08:01:10.307Z,26.11
2019-04-30T08:03:10.986Z,25.81
2019-04-30T08:04:09.020Z,25.83
2019-04-30T08:05:10.531Z,25.89
2019-04-30T08:06:10.093Z,26.04
2019-04-30T08:07:09.770Z,25.68
2019-04-30T08:08:21.249Z,25.38
2019-04-30T08:09:10.446Z,25.22
2019-04-30T08:09:35.580Z,25.89
2019-04-30T08:09:38.358Z,25.40
2019-04-30T08:10:08.862Z,25.28
2019-04-30T08:11:09.338Z,25.64
2019-04-30T08:12:09.716Z,25.96
2019-04-30T08:13:14.172Z,26.10
2019-04-30T08:14:09.932Z,26.01
2019-04-30T08:15:09.643Z,25.81
2019-04-30T08:16:09.758Z,25.34
2019-04-30T08:17:08.976Z,25.00
2019-04-30T08:18:08.801Z,24.74
2019-04-30T08:19:09.166Z,24.43
2019-04-30T08:20:08.918Z,24.23
2019-04-30T08:21:09.438Z,23.91
2019-04-30T08:22:09.594Z,23.34
2019-04-30T08:23:20.269Z,22.81
2019-04-30T08:24:09.710Z,22.36
2019-04-30T08:25:09.719Z,21.98
2019-04-30T08:26:08.986Z,21.74
2019-04-30T08:27:09.780Z,21.51
2019-04-30T08:28:09.159Z,21.26
2019-04-30T08:29:09.570Z,21.10
2019-04-30T08:30:20.759Z,20.83
2019-04-30T08:31:09.632Z,20.65
2019-04-30T08:32:09.088Z,20.34
2019-04-30T08:33:09.435Z,20.36
2019-04-30T08:34:10.720Z,20.12
2019-04-30T08:35:09.860Z,19.90
2019-04-30T08:36:09.467Z,19.68
2019-04-30T08:37:16.989Z,19.50
2019-04-30T08:38:10.790Z,19.30
2019-04-30T08:39:09.682Z,19.13
2019-04-30T08:40:08.800Z,18.97
2019-04-30T08:41:09.367Z,18.71
2019-04-30T08:42:09.001Z,18.75
2019-04-30T08:43:09.526Z,18.61
2019-04-30T08:44:09.438Z,18.70
2019-04-30T08:45:09.488Z,18.76
2019-04-30T08:46:09.428Z,18.71
2019-04-30T08:47:08.681Z,18.64
2019-04-30T08:48:09.090Z,18.52
2019-04-30T08:49:09.839Z,18.31
2019-04-30T08:50:09.781Z,18.27
2019-04-30T08:51:09.931Z,18.13
2019-04-30T08:52:10.351Z,18.01
2019-04-30T08:53:10.573Z,17.91
2019-04-30T08:54:09.612Z,17.81
2019-04-30T08:55:14.169Z,17.76
2019-04-30T08:56:10.079Z,17.72
2019-04-30T08:57:08.634Z,17.69
2019-04-30T08:58:14.542Z,17.50
2019-04-30T08:59:11.188Z,17.50
2019-04-30T09:00:09.515Z,17.31
2019-04-30T09:01:08.835Z,17.38
2019-04-30T09:02:15.896Z,17.32
2019-04-30T09:03:09.454Z,17.37
2019-04-30T09:04:10.362Z,17.41
2019-04-30T09:05:09.477Z,17.31
2019-04-30T09:06:09.333Z,17.27
2019-04-30T09:07:10.137Z,17.37
2019-04-30T09:08:09.601Z,17.34
2019-04-30T09:09:10.763Z,17.41
2019-04-30T09:10:09.267Z,17.59
2019-04-30T09:11:21.852Z,17.66
2019-04-30T09:12:09.950Z,17.68
2019-04-30T09:13:09.154Z,17.75
2019-04-30T09:14:08.611Z,17.76
2019-04-30T09:15:09.150Z,17.84
2019-04-30T09:16:09.314Z,17.90
2019-04-30T09:17:09.271Z,17.86
2019-04-30T09:18:12.431Z,17.91
2019-04-30T09:19:09.733Z,17.79
2019-04-30T09:20:09.143Z,17.75
2019-04-30T09:21:08.967Z,17.71
2019-04-30T09:22:14.645Z,17.76
2019-04-30T09:23:10.988Z,17.65
2019-04-30T09:24:09.545Z,17.71
2019-04-30T09:25:09.309Z,17.45
2019-04-30T09:26:08.688Z,17.45
2019-04-30T09:27:10.653Z,17.41
2019-04-30T09:28:08.634Z,17.45
2019-04-30T09:29:09.305Z,17.41
2019-04-30T09:30:10.205Z,17.34
2019-04-30T09:31:08.762Z,17.35
2019-04-30T09:32:09.233Z,17.45
2019-04-30T09:33:10.972Z,17.41
2019-04-30T09:34:16.751Z,17.41
2019-04-30T09:35:09.594Z,17.39
2019-04-30T09:36:09.170Z,17.47
2019-04-30T09:37:08.689Z,17.50
2019-04-30T09:38:09.159Z,17.45
2019-04-30T09:39:08.973Z,17.56
2019-04-30T09:40:17.683Z,17.68
2019-04-30T09:41:09.398Z,17.63
2019-04-30T09:42:09.230Z,17.49
2019-04-30T09:43:08.644Z,17.43
2019-04-30T09:44:09.931Z,17.38
2019-04-30T09:45:08.776Z,17.46
2019-04-30T09:46:18.717Z,17.52
2019-04-30T09:47:09.009Z,17.47
2019-04-30T09:48:09.392Z,17.53
2019-04-30T09:49:09.608Z,17.65
2019-04-30T09:50:09.111Z,17.79
2019-04-30T09:51:10.372Z,17.83
2019-04-30T09:52:09.070Z,17.87
2019-04-30T09:53:09.546Z,18.20
2019-04-30T09:54:11.861Z,18.38
2019-04-30T09:55:09.618Z,18.52
2019-04-30T09:56:09.440Z,18.49
2019-04-30T09:57:08.756Z,18.34
2019-04-30T09:58:16.745Z,18.36
2019-04-30T09:59:09.169Z,18.36
2019-04-30T10:00:09.392Z,18.33
2019-04-30T10:01:09.440Z,18.27
2019-04-30T10:02:09.232Z,18.26
2019-04-30T10:03:10.383Z,18.23
2019-04-30T10:04:09.905Z,18.17
2019-04-30T10:05:07.882Z,18.17
2019-04-30T10:06:08.931Z,18.17
2019-04-30T10:07:09.584Z,18.26
2019-04-30T10:08:07.591Z,18.20
2019-04-30T10:09:09.511Z,18.27
2019-04-30T10:10:09.460Z,18.26
2019-04-30T10:11:07.543Z,18.26
2019-04-30T10:12:09.561Z,18.21
2019-04-30T10:13:07.544Z,18.28
2019-04-30T10:14:07.506Z,18.36
2019-04-30T10:15:09.130Z,18.38
2019-04-30T10:16:09.639Z,18.31
2019-04-30T10:17:09.434Z,18.34
2019-04-30T10:18:07.484Z,18.48
2019-04-30T10:19:08.468Z,18.39
2019-04-30T10:20:07.441Z,18.41
2019-04-30T10:21:09.119Z,18.52
2019-04-30T10:22:08.988Z,18.51
2019-04-30T10:23:09.407Z,18.64
2019-04-30T10:24:13.132Z,18.83
2019-04-30T10:25:09.322Z,18.89
2019-04-30T10:26:07.374Z,18.78
2019-04-30T10:27:13.036Z,18.83
2019-04-30T10:28:09.938Z,18.85
2019-04-30T10:29:07.377Z,18.88
2019-04-30T10:30:09.230Z,18.85
2019-04-30T10:31:07.322Z,18.91
2019-04-30T10:32:08.793Z,18.91
2019-04-30T10:33:07.308Z,18.91
2019-04-30T10:34:07.316Z,18.98
2019-04-30T10:35:07.285Z,19.04
2019-04-30T10:36:09.274Z,18.98
2019-04-30T10:37:08.949Z,18.91
2019-04-30T10:38:07.276Z,19.05
2019-04-30T10:39:07.282Z,19.13
2019-04-30T10:40:07.231Z,19.19
2019-04-30T10:41:08.826Z,19.23
2019-04-30T10:42:07.208Z,19.27
2019-04-30T10:43:08.859Z,19.19
2019-04-30T10:44:08.872Z,19.39
2019-04-30T10:45:07.193Z,19.50
2019-04-30T10:46:07.165Z,19.60
2019-04-30T10:47:09.248Z,19.79
2019-04-30T10:48:07.143Z,20.17
2019-04-30T10:49:08.910Z,20.25
2019-04-30T10:50:07.122Z,20.41
2019-04-30T10:51:08.931Z,20.75
2019-04-30T10:52:07.105Z,20.89
2019-04-30T10:53:09.008Z,21.11
2019-04-30T10:54:08.827Z,21.37
2019-04-30T10:55:07.075Z,21.59
2019-04-30T10:56:07.167Z,21.73
2019-04-30T10:57:08.684Z,21.82
2019-04-30T10:58:07.035Z,22.11
2019-04-30T10:59:07.035Z,22.38
2019-04-30T11:00:08.332Z,22.85
2019-04-30T11:01:06.997Z,22.76
2019-04-30T11:02:08.951Z,22.80
2019-04-30T11:03:17.306Z,23.06
2019-04-30T11:04:07.979Z,23.29
2019-04-30T11:05:06.959Z,23.54
2019-04-30T11:06:08.555Z,23.78
2019-04-30T11:07:08.614Z,23.89
2019-04-30T11:08:06.925Z,23.70
2019-04-30T11:09:06.933Z,23.98
2019-04-30T11:10:08.656Z,24.06
2019-04-30T11:11:06.898Z,24.40
2019-04-30T11:12:06.887Z,24.86
2019-04-30T11:13:06.884Z,25.06
2019-04-30T11:14:06.887Z,25.38
2019-04-30T11:15:06.857Z,25.45
2019-04-30T11:16:14.723Z,25.30
2019-04-30T11:17:09.705Z,25.43
2019-04-30T11:18:07.044Z,25.41
2019-04-30T11:19:09.148Z,25.51
2019-04-30T11:20:06.989Z,25.67
2019-04-30T11:21:06.960Z,25.81
2019-04-30T11:22:07.065Z,25.74
2019-04-30T11:23:14.192Z,25.66
2019-04-30T11:24:09.352Z,25.63
2019-04-30T11:25:07.015Z,25.55
2019-04-30T11:26:07.318Z,25.81
2019-04-30T11:27:07.093Z,26.04
2019-04-30T11:28:07.247Z,26.52
2019-04-30T11:29:06.894Z,26.61
2019-04-30T11:30:19.831Z,26.75
2019-04-30T11:31:07.874Z,26.89
2019-04-30T11:32:06.924Z,26.85
2019-04-30T11:33:06.805Z,26.98
2019-04-30T11:34:06.664Z,26.94
2019-04-30T11:35:06.646Z,26.98
2019-04-30T11:36:06.622Z,27.04
2019-04-30T11:37:06.610Z,27.40
2019-04-30T11:38:06.599Z,27.49
2019-04-30T11:39:08.533Z,27.66
2019-04-30T11:40:06.614Z,27.72
2019-04-30T11:41:08.572Z,27.68
2019-04-30T11:42:06.558Z,27.76
2019-04-30T11:43:06.548Z,27.47
2019-04-30T11:44:06.542Z,27.27
2019-04-30T11:45:08.462Z,27.22
2019-04-30T11:46:08.335Z,27.34
2019-04-30T11:47:06.510Z,27.52
2019-04-30T11:48:06.498Z,27.44
2019-04-30T11:49:06.505Z,27.57
2019-04-30T11:50:06.503Z,27.34
2019-04-30T11:51:06.462Z,27.27
2019-04-30T11:52:06.452Z,27.41
2019-04-30T11:53:22.162Z,27.32
2019-04-30T11:54:08.952Z,27.07
2019-04-30T11:55:06.430Z,26.73
2019-04-30T11:56:06.404Z,26.76
2019-04-30T11:57:06.411Z,26.78
2019-04-30T11:58:06.400Z,26.75
2019-04-30T11:59:08.582Z,26.94
2019-04-30T12:00:06.403Z,26.98
2019-04-30T12:01:06.361Z,26.57
2019-04-30T12:02:06.341Z,26.42
2019-04-30T12:03:06.355Z,26.42
2019-04-30T12:04:06.318Z,26.49
2019-04-30T12:05:06.345Z,26.42
2019-04-30T12:06:06.298Z,26.53
2019-04-30T12:07:06.291Z,26.33
2019-04-30T12:08:06.283Z,26.33
2019-04-30T12:09:06.263Z,26.56
2019-04-30T12:10:06.277Z,26.76
2019-04-30T12:11:06.247Z,26.97
2019-04-30T12:12:06.255Z,27.10
2019-04-30T12:13:06.231Z,27.01
2019-04-30T12:14:06.210Z,27.23
2019-04-30T12:15:06.223Z,27.37
2019-04-30T12:16:06.261Z,27.38
2019-04-30T12:17:06.183Z,27.41
2019-04-30T12:18:06.233Z,27.60
2019-04-30T12:19:06.165Z,27.80
2019-04-30T12:20:06.179Z,27.87
2019-04-30T12:21:06.141Z,27.87
2019-04-30T12:22:06.149Z,28.09
2019-04-30T12:23:06.115Z,27.98
2019-04-30T12:24:06.115Z,27.87
2019-04-30T12:25:06.115Z,27.90
2019-04-30T12:26:06.086Z,27.87
2019-04-30T12:27:06.083Z,27.70
2019-04-30T12:28:06.063Z,27.52
2019-04-30T12:29:06.059Z,27.50
2019-04-30T12:30:06.061Z,27.82
2019-04-30T12:31:06.118Z,27.45
2019-04-30T12:32:06.023Z,27.38
2019-04-30T12:33:06.119Z,26.95
2019-04-30T12:34:05.998Z,26.97
2019-04-30T12:35:06.000Z,27.23
2019-04-30T12:36:06.513Z,27.20
2019-04-30T12:37:05.967Z,27.37
2019-04-30T12:38:06.006Z,27.49
2019-04-30T12:39:05.954Z,27.73
2019-04-30T12:40:05.956Z,27.88
2019-04-30T12:41:05.992Z,28.06
2019-04-30T12:42:05.918Z,27.97
2019-04-30T12:43:05.907Z,27.90
2019-04-30T12:44:05.900Z,27.97
2019-04-30T12:45:05.904Z,27.73
2019-04-30T12:46:05.948Z,27.08
2019-04-30T12:47:05.873Z,27.04
2019-04-30T12:48:05.856Z,26.95
2019-04-30T12:49:05.922Z,26.83
2019-04-30T12:50:05.900Z,26.90
2019-04-30T12:51:05.823Z,27.20
2019-04-30T12:52:05.821Z,27.37
2019-04-30T12:53:05.813Z,27.54
2019-04-30T12:54:05.803Z,27.73
2019-04-30T12:55:15.307Z,27.87
2019-04-30T12:56:08.847Z,27.91
2019-04-30T12:57:05.761Z,28.07
2019-04-30T12:58:05.762Z,27.98
2019-04-30T12:59:05.736Z,27.68
2019-04-30T13:00:05.740Z,27.45
2019-04-30T13:01:05.738Z,27.35
2019-04-30T13:02:05.702Z,27.20
2019-04-30T13:03:05.693Z,27.15